Nearby METAR Reports

 

KCXY - Harrisburg, Pennsylvania, USA
Distance from station: E 9mi, 14km
Updated: Sat, 24-Oct-2020 6:56pm EDT
Clear
Clear
 Wind from NNW
Wind: NNW 7 mph , 11 km/h
Temperature: 59°F , 15°C
Dew Point: 43°F , 6°C
Humidity: 55%
Barometer: 30.05 inHg , 1017.6 hPa
Clouds: Clear
Visibility: 10 miles , 16 km
2020/10/24 22:56 KCXY 242256Z 34006KT 10SM CLR 15/06 A3005 RMK AO2 SLP177 T01500061
KMDT - Middletown, Pennsylvania, USA
Distance from station: E 13mi, 21km
Updated: Sat, 24-Oct-2020 6:56pm EDT
Mostly cloudy
Mostly cloudy
 Wind from N
Wind: N 6 mph , 9 km/h
Temperature: 57°F , 14°C
Dew Point: 45°F , 7°C
Humidity: 63%
Barometer: 30.05 inHg , 1017.6 hPa
Clouds: Mostly cloudy
Visibility: 10 miles , 16 km
Cloud details: Partly cloudy 4000 ft
Mostly cloudy 20000 ft
2020/10/24 22:56 KMDT 242256Z 35005KT 10SM SCT040 BKN200 14/07 A3005 RMK AO2 SLP174 T01390067
 
KTHV - York, Pennsylvania, USA
Distance from station: SSE 22mi, 36km
Updated: Sat, 24-Oct-2020 6:53pm EDT
Overcast
Overcast
 Wind from N
Wind: N 3 mph , 6 km/h
Temperature: 57°F , 14°C
Dew Point: 46°F , 8°C
Humidity: 67%
Barometer: 30.04 inHg , 1017.3 hPa
Clouds: Overcast
Visibility: 10 miles , 16 km
Cloud details: Overcast 6500 ft
2020/10/24 22:53 KTHV 242253Z AUTO 01003KT 10SM OVC065 14/08 A3004 RMK AO2 SLP174 T01390078
KMUI - Muir Aaf/Indiant, Pennsylvania, USA
Distance from station: ENE 27mi, 44km
Updated: Sat, 24-Oct-2020 6:56pm EDT
Clear
Clear
 Wind from N
Wind: N 3 mph , 6 km/h
Temperature: 54°F , 12°C
Dew Point: 41°F , 5°C
Humidity: 63%
Barometer: 30.05 inHg , 1017.6 hPa
Clouds: Clear
Visibility: 10 miles , 16 km
2020/10/24 22:56 KMUI 242256Z AUTO 36003KT 10SM CLR 12/05 A3005 RMK AO2 SLP179 T01150049
 
KLNS - Lancaster, Pennsylvania, USA
Distance from station: E 38mi, 62km
Updated: Sat, 24-Oct-2020 6:53pm EDT
Clear
Clear
 Wind from N
Wind: N 9 mph , 15 km/h
Temperature: 57°F , 14°C
Dew Point: 43°F , 6°C
Humidity: 59%
Barometer: 30.04 inHg , 1017.3 hPa
Clouds: Clear
Visibility: 10 miles , 16 km
2020/10/24 22:53 KLNS 242253Z 35008KT 10SM CLR 14/06 A3004 RMK AO2 SLP170 T01390061
KRYT - Fountain Dale, Pennsylvania, USA
Distance from station: SSW 40mi, 65km
Updated: Mon, 13-Nov-2017 7:53am EST
NOT Current
Mist, Overcast
Mist, Overcast
 Wind from calm
Wind: Calm
Temperature: 37°F , 3°C
Dew Point: 34°F , 1°C
Humidity: 87%
Barometer: 30.31 inHg , 1026.4 hPa
Summary: Mist
Clouds: Overcast
Visibility: 5 miles , 8 km
Cloud details: Overcast 700 ft
2017/11/13 12:53 KRYT 131253Z AUTO 00000KT 5SM BR OVC007 03/01 A3031 RMK AO2 SLP275 T00280011 TSNO $
 
KSEG - Selinsgrove, Pennsylvania, USA
Distance from station: N 42mi, 67km
Updated: Sat, 24-Oct-2020 6:53pm EDT
Clear
Clear
 Wind from N
Wind: N 6 mph , 9 km/h
Temperature: 52°F , 11°C
Dew Point: 37°F , 3°C
Humidity: 58%
Barometer: 30.08 inHg , 1018.6 hPa
Clouds: Clear
Visibility: 10 miles , 16 km
2020/10/24 22:53 KSEG 242253Z AUTO 01005KT 10SM CLR 11/03 A3008 RMK AO2 SLP186 T01060028
KDMW - Carroll Cnty, Maryland, USA
Distance from station: S 43mi, 69km
Updated: Sat, 24-Oct-2020 7:35pm EDT
Overcast
Overcast
 Wind from NW
Wind: NW 7 mph , 11 km/h
Temperature: 61°F , 16°C
Dew Point: 48°F , 9°C
Humidity: 63%
Barometer: 30.06 inHg , 1017.9 hPa
Clouds: Overcast
Visibility: 10 miles , 16 km
Cloud details: Overcast 6000 ft
2020/10/24 23:35 KDMW 242335Z AUTO 32006KT 10SM OVC060 16/09 A3006 RMK AO2
 
KRSP - Camp David, Maryland, USA
Distance from station: SSW 46mi, 74km
Updated: Sat, 24-Oct-2020 6:54pm EDT
Overcast
Overcast
 Wind from NW
Wind: NW 10 mph , 17 km/h, Gust: 22 mph , 35 km/h
Temperature: 52°F , 11°C
Dew Point: 43°F , 6°C
Humidity: 72%
Barometer: 30.03 inHg , 1016.9 hPa
Clouds: Overcast
Visibility: 10 miles , 16 km
Cloud details: Overcast 4500 ft
2020/10/24 22:54 KRSP 242254Z AUTO 32009G19KT 10SM OVC045 11/06 A3003 RMK AO2 SLP175 T01060056 $